Time;durP1;ratioP1;P1;durP2;ratioP2;P2;SDS_P1;SDS_P2;PMS_P1;PMS_P2;Temp;Humidity;BMP_temperature;BMP_pressure;BME280_temperature;BME280_humidity;BME280_pressure;Samples;Min_cycle;Max_cycle;Signal;HPM_P1;HPM_P2
2022/10/13 00:01:30;;;;;;;29.02;12.37;;;;;;;8.74;76.57;100080.90;1748276;81;21505;-42
2022/10/13 00:03:55;;;;;;;27.45;11.65;;;;;;;8.73;76.25;100083.58;1748263;81;21010;-42
2022/10/13 00:06:25;;;;;;;33.65;12.30;;;;;;;8.73;76.27;100082.27;1748201;81;21015;-46
2022/10/13 00:08:51;;;;;;;31.93;11.48;;;;;;;8.72;76.24;100078.80;1748212;82;21595;-43
2022/10/13 00:11:25;;;;;;;29.30;11.70;;;;;;;8.70;75.88;100077.99;1748205;81;20968;-40
2022/10/13 00:13:54;;;;;;;25.48;11.48;;;;;;;8.69;76.17;100075.42;1747571;81;20976;-45
2022/10/13 00:16:22;;;;;;;25.57;11.48;;;;;;;8.65;76.41;100080.77;1748253;81;21449;-43
2022/10/13 00:18:48;;;;;;;;;;;;;;;8.61;76.66;100084.41;1750816;81;21026;-46
2022/10/13 00:21:18;;;;;;;26.55;12.53;;;;;;;8.56;76.85;100079.77;1748200;81;20104;-47
2022/10/13 00:23:44;;;;;;;29.07;11.85;;;;;;;8.54;76.97;100080.28;1748181;81;20995;-43
2022/10/13 00:26:13;;;;;;;27.13;11.60;;;;;;;8.52;76.79;100082.57;1748107;81;20960;-47
2022/10/13 00:28:39;;;;;;;29.75;11.80;;;;;;;8.48;76.97;100079.62;1748155;81;21020;-44
2022/10/13 00:31:19;;;;;;;33.75;12.47;;;;;;;8.44;76.76;100078.88;1748166;81;20981;-42
2022/10/13 00:33:44;;;;;;;31.17;12.15;;;;;;;8.41;77.02;100069.80;1748140;81;21479;-43
2022/10/13 00:36:10;;;;;;;32.50;12.65;;;;;;;8.37;77.19;100070.35;1748152;82;21028;-47
2022/10/13 00:38:36;;;;;;;30.37;11.45;;;;;;;8.35;76.95;100069.55;1748172;81;21011;-42
2022/10/13 00:41:02;;;;;;;33.18;12.33;;;;;;;8.32;77.19;100064.40;1748154;81;20964;-41
2022/10/13 00:44:00;;;;;;;34.38;11.60;;;;;;;8.32;77.51;100066.17;1748183;82;21015;-41
2022/10/13 00:46:29;;;;;;;;;;;;;;;8.30;77.21;100064.06;1750756;82;20984;-41
2022/10/13 00:48:58;;;;;;;32.23;10.40;;;;;;;8.25;77.99;100065.52;1747436;80;20458;-41
2022/10/13 00:51:28;;;;;;;25.95;11.08;;;;;;;8.23;77.89;100066.87;1748189;81;21485;-43
2022/10/13 00:53:55;;;;;;;28.75;10.75;;;;;;;8.21;77.92;100070.45;1748257;81;21011;-41
2022/10/13 00:56:23;;;;;;;25.95;10.82;;;;;;;8.21;77.70;100065.22;1763127;81;21517;-46
2022/10/13 00:58:49;;;;;;;22.93;10.18;;;;;;;8.19;78.14;100060.48;1748295;82;20987;-43
2022/10/13 01:01:15;;;;;;;24.30;10.90;;;;;;;8.17;77.72;100063.62;1748160;81;21043;-42
2022/10/13 01:03:41;;;;;;;26.33;10.98;;;;;;;8.14;77.81;100058.47;1748251;81;21003;-45
2022/10/13 01:06:08;;;;;;;30.30;10.88;;;;;;;8.15;77.97;100057.55;1748252;81;21024;-44
2022/10/13 01:08:34;;;;;;;28.67;10.63;;;;;;;8.14;78.08;100055.84;1748347;81;21518;-46
2022/10/13 01:11:32;;;;;;;25.12;10.50;;;;;;;8.12;77.80;100053.73;1748138;82;21019;-42
2022/10/13 01:14:23;;;;;;;23.87;10.08;;;;;;;8.12;77.75;100057.20;1748127;81;21024;-42
2022/10/13 01:17:00;;;;;;;25.23;10.35;;;;;;;8.10;77.41;100051.63;1748099;82;20984;-46
2022/10/13 01:20:14;;;;;;;25.65;10.00;;;;;;;8.11;77.65;100045.00;1748199;81;21453;-45
2022/10/13 01:23:02;;;;;;;28.38;9.95;;;;;;;8.08;77.82;100046.43;1745162;82;21487;-41
2022/10/13 01:25:39;;;;;;;26.27;9.18;;;;;;;8.07;77.77;100042.09;1745210;82;20995;-44
2022/10/13 01:28:16;;;;;;;22.73;9.68;;;;;;;8.05;78.06;100039.97;1744662;82;20981;-45
2022/10/13 01:30:50;;;;;;;25.48;9.65;;;;;;;8.06;77.82;100039.92;1745334;82;21032;-40
2022/10/13 01:33:37;;;;;;;27.20;8.90;;;;;;;8.04;78.05;100031.70;1738724;82;21511;-41
2022/10/13 01:36:17;;;;;;;27.33;9.27;;;;;;;8.06;77.76;100031.22;1745453;82;20969;-46
2022/10/13 01:38:54;;;;;;;20.65;9.38;;;;;;;8.04;78.16;100021.22;1744953;82;20965;-44
2022/10/13 01:41:39;;;;;;;22.40;9.15;;;;;;;8.06;77.38;100019.44;1745420;82;21008;-46
2022/10/13 01:44:27;;;;;;;21.10;8.48;;;;;;;8.05;77.76;100013.31;1745233;82;20969;-46
2022/10/13 01:46:54;;;;;;;26.60;8.88;;;;;;;8.07;77.83;100010.19;1745179;82;21049;-47
2022/10/13 01:49:24;;;;;;;22.45;8.80;;;;;;;8.06;77.37;100008.49;1745070;82;21574;-44
2022/10/13 01:51:51;;;;;;;20.68;8.70;;;;;;;8.08;77.42;100006.67;1745270;82;21040;-46
2022/10/13 01:54:17;;;;;;;23.53;8.70;;;;;;;8.08;77.50;99998.81;1745451;82;21004;-42
2022/10/13 01:56:52;;;;;;;18.55;8.25;;;;;;;8.11;77.10;100003.08;1746646;82;20995;-42
2022/10/13 01:59:19;;;;;;;17.75;7.72;;;;;;;8.14;77.46;100003.45;1748152;81;21513;-48
2022/10/13 02:02:11;;;;;;;30.80;9.45;;;;;;;8.16;77.13;100002.94;1748164;81;21020;-42
2022/10/13 02:04:57;;;;;;;21.35;8.48;;;;;;;8.19;77.17;100002.84;1748113;82;20960;-44
2022/10/13 02:07:58;;;;;;;15.93;8.55;;;;;;;8.20;76.59;99990.12;1747957;81;21015;-44
2022/10/13 02:11:00;;;;;;;24.98;9.58;;;;;;;8.21;76.53;99987.92;1748090;81;21479;-47
2022/10/13 02:13:28;;;;;;;24.07;9.70;;;;;;;8.22;76.62;99988.31;1739568;82;20996;-46
2022/10/13 02:15:58;;;;;;;21.17;8.93;;;;;;;8.22;76.40;99984.38;1748086;81;20971;-41
2022/10/13 02:18:33;;;;;;;23.80;9.15;;;;;;;8.22;76.74;99986.56;1748103;81;21520;-45
2022/10/13 02:21:00;;;;;;;22.70;8.93;;;;;;;8.23;77.13;99980.87;1748073;81;21623;-42
2022/10/13 02:23:28;;;;;;;28.47;10.28;;;;;;;8.22;76.76;99977.40;1748249;82;21508;-44
2022/10/13 02:25:56;;;;;;;27.02;9.75;;;;;;;8.22;76.71;99975.21;1748250;81;21027;-47
2022/10/13 02:28:23;;;;;;;27.05;9.53;;;;;;;8.24;76.70;99976.01;1748096;81;20991;-41
2022/10/13 02:30:49;;;;;;;22.77;9.70;;;;;;;8.24;76.55;99974.70;1748371;81;20953;-44
2022/10/13 02:33:15;;;;;;;25.52;10.48;;;;;;;8.24;76.28;99970.77;1748063;81;21465;-43
2022/10/13 02:35:42;;;;;;;24.55;10.25;;;;;;;8.21;76.51;99972.20;1748084;81;21031;-41
2022/10/13 02:38:08;;;;;;;27.35;10.32;;;;;;;8.18;76.58;99974.92;1748244;81;20984;-45
2022/10/13 02:43:29;;;;;;;33.65;10.32;;;;;;;8.18;76.43;99973.61;1818487;79;22952;-42
2022/10/13 02:45:55;;;;;;;20.82;10.00;;;;;;;8.12;76.51;99980.38;1792951;80;21543;-38
2022/10/13 02:48:21;;;;;;;29.02;11.85;;;;;;;8.07;76.47;99985.77;1793074;80;20998;-43
2022/10/13 02:50:46;;;;;;;25.50;11.05;;;;;;;8.07;76.27;99978.75;1792922;80;20995;-44
2022/10/13 02:53:12;;;;;;;27.30;11.80;;;;;;;8.04;76.33;99972.33;1792988;80;20963;-45
2022/10/13 02:55:38;;;;;;;25.62;11.55;;;;;;;8.01;76.61;99971.58;1792968;80;21049;-47
2022/10/13 02:58:04;;;;;;;26.52;11.25;;;;;;;7.96;76.86;99974.34;1792977;80;21030;-45
2022/10/13 03:00:29;;;;;;;33.20;11.68;;;;;;;7.94;77.09;99973.53;1792955;80;20995;-46
2022/10/13 03:02:55;;;;;;;29.55;11.83;;;;;;;7.90;76.97;99969.31;1792956;80;20991;-49
2022/10/13 03:05:21;;;;;;;24.47;10.80;;;;;;;7.86;76.83;99965.95;1792930;80;21523;-42
2022/10/13 03:07:48;;;;;;;27.40;11.95;;;;;;;7.82;77.33;99963.03;1793040;80;21507;-39
2022/10/13 03:10:14;;;;;;;28.32;11.53;;;;;;;7.79;77.72;99965.74;1793145;80;21017;-43
2022/10/13 03:12:40;;;;;;;31.30;12.18;;;;;;;7.77;78.05;99965.41;1793094;80;21495;-42
2022/10/13 03:15:08;;;;;;;23.57;12.23;;;;;;;7.73;78.25;99964.66;1792987;80;21006;-40
2022/10/13 03:17:33;;;;;;;32.65;12.18;;;;;;;7.73;77.81;99966.39;1793004;80;21033;-48
2022/10/13 03:19:59;;;;;;;31.02;11.65;;;;;;;7.69;78.16;99967.82;1792878;80;20982;-39
2022/10/13 03:22:25;;;;;;;32.58;12.05;;;;;;;7.67;78.32;99968.30;1792894;80;20994;-45
2022/10/13 03:24:50;;;;;;;30.70;12.15;;;;;;;7.68;78.42;99965.25;1792971;80;21042;-45
2022/10/13 03:27:16;;;;;;;35.13;11.93;;;;;;;7.67;78.34;99965.67;1792959;80;21002;-42
2022/10/13 03:29:42;;;;;;;37.60;12.58;;;;;;;7.69;78.15;99970.44;1792911;80;21002;-44
2022/10/13 03:32:08;;;;;;;28.25;11.28;;;;;;;7.68;78.16;99972.64;1793015;80;21497;-46
2022/10/13 03:34:34;;;;;;;24.45;12.05;;;;;;;7.65;78.64;99968.80;1792947;80;21528;-48
2022/10/13 03:37:00;;;;;;;29.12;12.63;;;;;;;7.65;78.32;99969.27;1792983;80;21503;-47
2022/10/13 03:39:26;;;;;;;31.17;13.53;;;;;;;7.64;78.73;99968.84;1792990;80;21484;-41
2022/10/13 03:41:51;;;;;;;27.52;13.10;;;;;;;7.62;78.32;99971.54;1789759;80;21008;-39
2022/10/13 03:44:17;;;;;;;25.57;12.95;;;;;;;7.62;78.26;99965.42;1779505;80;21527;-44
2022/10/13 03:46:43;;;;;;;29.65;12.78;;;;;;;7.60;78.58;99965.47;1779369;80;21484;-45
2022/10/13 03:49:11;;;;;;;29.25;12.53;;;;;;;7.60;78.39;99965.94;1779420;80;21547;-42
2022/10/13 03:51:37;;;;;;;35.68;13.28;;;;;;;7.59;78.48;99968.16;1779614;81;20978;-48
2022/10/13 03:54:03;;;;;;;33.92;12.70;;;;;;;7.58;78.47;99965.13;1757167;81;20994;-44
2022/10/13 03:56:28;;;;;;;32.42;13.88;;;;;;;7.57;78.26;99970.83;1778777;80;21035;-45
2022/10/13 03:58:56;;;;;;;27.77;12.78;;;;;;;7.55;78.81;99968.72;1778773;81;20984;-44
2022/10/13 04:01:25;;;;;;;37.13;13.22;;;;;;;7.53;78.56;99966.60;1778736;81;20991;-43
2022/10/13 04:03:54;;;;;;;25.08;12.55;;;;;;;7.53;79.00;99966.60;1777579;80;20988;-43
2022/10/13 04:06:21;;;;;;;35.13;12.25;;;;;;;7.52;78.74;99969.27;1778834;81;20987;-43
2022/10/13 04:08:47;;;;;;;29.95;12.70;;;;;;;7.51;78.82;99965.77;1778931;80;20956;-48
2022/10/13 04:11:15;;;;;;;27.73;12.68;;;;;;;7.52;78.61;99966.19;1778838;80;21476;-40
2022/10/13 04:13:41;;;;;;;31.85;13.60;;;;;;;7.52;78.81;99963.57;1778981;80;20987;-46
2022/10/13 04:16:18;;;;;;;34.10;14.58;;;;;;;7.52;78.71;99961.41;1778859;81;21453;-46
2022/10/13 04:18:50;;;;;;;28.70;13.90;;;;;;;7.50;78.83;99955.77;1772020;81;20978;-47
2022/10/13 04:21:16;;;;;;;33.42;13.68;;;;;;;7.50;79.00;99965.38;1778750;81;21433;-41
2022/10/13 04:23:42;;;;;;;31.05;12.93;;;;;;;7.50;78.65;99961.45;1778909;80;21027;-43
2022/10/13 04:26:19;;;;;;;35.90;13.43;;;;;;;7.50;78.56;99965.38;1778744;81;20991;-43
2022/10/13 04:28:47;;;;;;;37.10;13.15;;;;;;;7.50;78.32;99965.38;1778927;81;20999;-44
2022/10/13 04:31:13;;;;;;;35.35;14.75;;;;;;;7.52;78.11;99971.42;1778772;81;21524;-43
2022/10/13 04:33:39;;;;;;;33.53;13.22;;;;;;;7.49;78.38;99968.46;1778753;81;20991;-40
2022/10/13 04:36:07;;;;;;;35.17;15.05;;;;;;;7.49;78.39;99973.70;1778742;81;20975;-44
2022/10/13 04:38:33;;;;;;;34.92;13.98;;;;;;;7.47;78.55;99966.78;1778810;81;20959;-40
2022/10/13 04:41:02;;;;;;;32.73;13.53;;;;;;;7.46;78.28;99965.94;1778860;80;21460;-40
2022/10/13 04:43:29;;;;;;;33.75;14.55;;;;;;;7.47;78.73;99962.39;1778774;80;21492;-44
2022/10/13 04:46:15;;;;;;;32.88;13.48;;;;;;;7.46;78.56;99961.16;1778776;81;20991;-42
2022/10/13 04:48:41;;;;;;;34.10;14.05;;;;;;;7.44;78.44;99965.56;1779089;81;20952;-43
2022/10/13 04:51:10;;;;;;;26.00;12.82;;;;;;;7.42;78.53;99971.30;1778857;81;20992;-42
2022/10/13 04:53:37;;;;;;;32.17;13.20;;;;;;;7.42;79.05;99972.17;1778801;80;20983;-44
2022/10/13 04:56:07;;;;;;;37.78;13.58;;;;;;;7.41;78.95;99980.06;1778777;81;21039;-45
2022/10/13 04:58:34;;;;;;;29.35;13.72;;;;;;;7.39;79.08;99977.95;1778168;80;20991;-50
2022/10/13 05:01:01;;;;;;;29.77;13.93;;;;;;;7.40;78.74;99972.65;1778929;80;21487;-46
2022/10/13 05:03:28;;;;;;;34.88;15.08;;;;;;;7.39;78.69;99970.11;1779114;81;20983;-43
2022/10/13 05:05:53;;;;;;;43.40;15.38;;;;;;;7.37;79.17;99971.45;1778708;81;20963;-41
2022/10/13 05:08:20;;;;;;;31.73;13.50;;;;;;;7.35;79.00;99969.34;1778797;81;20988;-46
2022/10/13 05:10:57;;;;;;;31.77;12.60;;;;;;;7.36;79.05;99966.27;1779129;80;21026;-45
2022/10/13 05:13:25;;;;;;;34.18;13.88;;;;;;;7.38;78.92;99965.30;1778908;81;21034;-44
2022/10/13 05:15:51;;;;;;;28.73;12.65;;;;;;;7.39;78.59;99976.65;1778825;81;21483;-48
2022/10/13 05:18:17;;;;;;;30.37;11.88;;;;;;;7.39;78.71;99971.41;1778734;81;20987;-45
2022/10/13 05:20:42;;;;;;;28.30;11.60;;;;;;;7.37;78.75;99971.45;1778685;80;21448;-40
2022/10/13 05:23:08;;;;;;;33.23;13.00;;;;;;;7.38;78.77;99964.45;1778763;80;20964;-43
2022/10/13 05:25:35;;;;;;;31.42;12.90;;;;;;;7.39;78.82;99959.64;1778730;81;20995;-44
2022/10/13 05:28:04;;;;;;;34.87;13.70;;;;;;;7.39;78.59;99960.95;1779018;81;20987;-46
2022/10/13 05:30:29;;;;;;;26.20;12.45;;;;;;;7.40;78.62;99967.88;1777738;80;21010;-45
2022/10/13 05:32:55;;;;;;;35.13;12.80;;;;;;;7.40;78.51;99963.95;1778689;81;20999;-45
2022/10/13 05:35:21;;;;;;;30.35;12.58;;;;;;;7.40;78.32;99966.56;1778727;81;20991;-40
2022/10/13 05:37:46;;;;;;;41.98;12.78;;;;;;;7.40;78.38;99966.56;1778822;80;21602;-39
2022/10/13 05:40:13;;;;;;;29.92;11.85;;;;;;;7.42;78.29;99964.75;1778804;81;20963;-45
2022/10/13 05:42:38;;;;;;;36.68;13.35;;;;;;;7.42;78.32;99963.45;1778603;80;21552;-41
2022/10/13 05:45:09;;;;;;;32.15;13.53;;;;;;;7.43;78.41;99964.71;1778696;81;21422;-45
2022/10/13 05:47:35;;;;;;;35.35;12.90;;;;;;;7.46;78.22;99966.39;1778665;81;21003;-42
2022/10/13 05:50:01;;;;;;;31.55;12.82;;;;;;;7.49;78.04;99972.39;1778680;81;20975;-44
2022/10/13 05:52:30;;;;;;;33.30;12.68;;;;;;;7.50;78.12;99973.23;1778732;80;20995;-40
2022/10/13 05:54:59;;;;;;;26.65;14.03;;;;;;;7.51;77.94;99981.47;1778710;80;21023;-45
2022/10/13 05:57:32;;;;;;;37.38;12.90;;;;;;;7.50;78.13;99974.55;1778714;81;21003;-43
2022/10/13 06:00:03;;;;;;;27.70;12.35;;;;;;;7.53;77.98;99980.13;1778753;80;20995;-47
2022/10/13 06:02:35;;;;;;;43.00;13.08;;;;;;;7.53;78.03;99979.69;1778220;80;21594;-42
2022/10/13 06:05:04;;;;;;;36.38;11.75;;;;;;;7.56;78.10;99974.80;1778787;81;21022;-44
2022/10/13 06:07:30;;;;;;;31.30;10.95;;;;;;;7.61;77.75;99978.13;1778791;80;21027;-42
2022/10/13 06:09:57;;;;;;;27.07;11.10;;;;;;;7.62;77.49;99978.08;1778936;81;20987;-45
2022/10/13 06:12:24;;;;;;;27.37;11.40;;;;;;;7.67;77.69;99974.84;1778981;81;20968;-43
2022/10/13 06:14:49;;;;;;;38.33;11.93;;;;;;;7.73;77.55;99971.63;1778658;80;21479;-49
2022/10/13 06:17:15;;;;;;;23.32;10.65;;;;;;;7.76;77.51;99968.91;1778987;80;21443;-50
2022/10/13 06:19:41;;;;;;;32.13;10.85;;;;;;;7.77;77.22;99967.56;1778658;80;20983;-50
2022/10/13 06:22:07;;;;;;;22.95;10.63;;;;;;;7.81;77.18;99967.86;1778689;80;21015;-46
2022/10/13 06:24:33;;;;;;;27.33;10.93;;;;;;;7.85;77.00;99969.92;1778975;81;20995;-42
2022/10/13 06:26:59;;;;;;;26.27;10.90;;;;;;;7.89;76.58;99968.90;1778693;80;21581;-42
2022/10/13 06:29:25;;;;;;;29.98;11.63;;;;;;;7.94;76.70;99960.44;1778668;81;20988;-43
2022/10/13 06:31:51;;;;;;;26.45;10.38;;;;;;;7.98;76.66;99958.58;1778763;81;20979;-46
2022/10/13 06:34:16;;;;;;;31.52;10.63;;;;;;;8.04;76.39;99963.16;1778810;80;21500;-43
2022/10/13 06:36:42;;;;;;;27.50;10.88;;;;;;;8.09;76.23;99959.06;1778686;80;21464;-42
2022/10/13 06:39:09;;;;;;;24.60;10.25;;;;;;;8.14;76.10;99956.30;1778726;80;20990;-46
2022/10/13 06:41:35;;;;;;;32.63;12.43;;;;;;;8.21;75.85;99961.72;1778891;81;21492;-43
2022/10/13 06:44:00;;;;;;;28.62;10.93;;;;;;;8.25;75.75;99956.77;1778589;81;21019;-40
2022/10/13 06:46:26;;;;;;;26.65;10.43;;;;;;;8.30;75.39;99956.16;1778708;80;21018;-41
2022/10/13 06:48:52;;;;;;;29.98;10.95;;;;;;;8.35;75.38;99962.09;1778714;80;20983;-46
2022/10/13 06:51:17;;;;;;;27.15;10.80;;;;;;;8.40;75.43;99956.67;1778644;81;20987;-41
2022/10/13 06:53:43;;;;;;;29.82;10.80;;;;;;;8.45;75.28;99963.49;1778685;80;20995;-45
2022/10/13 06:56:09;;;;;;;26.27;10.48;;;;;;;8.50;75.20;99952.86;1778806;80;20964;-44
2022/10/13 06:58:36;;;;;;;25.85;10.68;;;;;;;8.53;74.84;99954.06;1778644;81;21003;-47
2022/10/13 07:01:04;;;;;;;31.27;10.23;;;;;;;8.55;74.85;99957.48;1778890;81;20996;-43
2022/10/13 07:03:30;;;;;;;;;;;;;;;8.58;74.45;99956.51;1781444;81;21486;-43
2022/10/13 07:06:04;;;;;;;28.75;9.83;;;;;;;8.58;74.01;99959.12;1778870;80;20104;-45
2022/10/13 07:08:33;;;;;;;26.82;10.00;;;;;;;8.67;74.41;99955.32;1778688;80;20995;-46
2022/10/13 07:11:08;;;;;;;24.57;9.43;;;;;;;8.71;74.01;99953.82;1778622;80;21488;-45
2022/10/13 07:13:34;;;;;;;29.87;9.75;;;;;;;8.75;73.71;99952.82;1779001;80;20983;-45
2022/10/13 07:16:05;;;;;;;37.28;9.15;;;;;;;8.79;73.50;99952.25;1778691;80;21433;-46
2022/10/13 07:18:31;;;;;;;18.00;9.08;;;;;;;8.85;73.57;99948.08;1778690;81;21030;-44
2022/10/13 07:20:59;;;;;;;28.07;9.20;;;;;;;8.86;73.11;99946.30;1778695;80;20995;-44
2022/10/13 07:23:25;;;;;;;25.68;8.65;;;;;;;8.89;73.16;99940.95;1778857;80;21543;-42
2022/10/13 07:25:52;;;;;;;25.67;9.47;;;;;;;8.93;73.24;99941.22;1778913;80;21439;-46
2022/10/13 07:28:18;;;;;;;26.82;9.38;;;;;;;8.96;73.13;99929.30;1778979;81;21172;-44
2022/10/13 07:30:44;;;;;;;21.52;9.63;;;;;;;9.00;72.94;99936.14;1778886;80;21011;-43
2022/10/13 07:33:10;;;;;;;19.67;9.73;;;;;;;9.03;72.55;99937.34;1778873;80;21043;-43
2022/10/13 07:35:39;;;;;;;20.68;8.58;;;;;;;9.08;72.70;99936.71;1778824;80;20994;-44
2022/10/13 07:38:06;;;;;;;29.72;9.08;;;;;;;9.10;72.71;99928.31;1778801;80;20960;-46
2022/10/13 07:40:33;;;;;;;17.67;7.87;;;;;;;9.13;72.51;99925.59;1779039;80;21493;-47
2022/10/13 07:42:59;;;;;;;21.50;9.90;;;;;;;9.17;72.54;99923.23;1779207;80;20996;-44
2022/10/13 07:45:25;;;;;;;25.45;8.88;;;;;;;9.21;72.68;99912.16;1778833;80;20992;-47
2022/10/13 07:47:51;;;;;;;24.82;9.18;;;;;;;9.27;72.35;99913.67;1778772;81;20956;-44
2022/10/13 07:50:17;;;;;;;26.97;7.95;;;;;;;9.32;72.40;99911.73;1779011;80;20979;-46
2022/10/13 07:52:42;;;;;;;23.05;8.38;;;;;;;9.38;72.13;99907.53;1778780;80;21445;-43
2022/10/13 07:55:08;;;;;;;25.68;7.87;;;;;;;9.43;71.96;99908.20;1778926;81;20968;-47
2022/10/13 07:57:34;;;;;;;22.75;8.30;;;;;;;9.52;72.23;99913.55;1778863;81;21034;-44
2022/10/13 08:00:00;;;;;;;23.65;8.23;;;;;;;9.57;71.99;99909.81;1778842;80;20971;-45
2022/10/13 08:02:26;;;;;;;21.45;7.80;;;;;;;9.64;71.68;99901.66;1778812;81;20960;-44
2022/10/13 08:04:52;;;;;;;16.93;7.80;;;;;;;9.72;72.00;99899.12;1778802;81;20996;-43
2022/10/13 08:07:18;;;;;;;24.52;8.23;;;;;;;9.78;71.50;99896.69;1778747;80;21029;-45
2022/10/13 08:09:44;;;;;;;27.48;7.85;;;;;;;9.84;70.92;99893.83;1778898;80;21030;-42
2022/10/13 08:12:10;;;;;;;25.77;8.15;;;;;;;9.94;70.76;99887.23;1778786;81;20999;-44
2022/10/13 08:14:36;;;;;;;22.50;6.33;;;;;;;10.06;70.79;99887.62;1779123;80;21492;-46
2022/10/13 08:17:02;;;;;;;17.37;6.30;;;;;;;10.15;69.60;99883.27;1778818;81;20995;-49
2022/10/13 08:19:27;;;;;;;18.80;6.22;;;;;;;10.24;68.96;99886.83;1778819;80;20972;-42
2022/10/13 08:21:54;;;;;;;13.38;6.25;;;;;;;10.37;68.74;99891.95;1778718;81;20964;-43
2022/10/13 08:24:24;;;;;;;14.18;5.37;;;;;;;10.49;67.52;99890.53;1779075;80;21015;-41
2022/10/13 08:26:49;;;;;;;14.60;5.65;;;;;;;10.59;68.01;99886.17;1777675;80;21019;-44
2022/10/13 08:29:15;;;;;;;22.25;6.25;;;;;;;10.70;68.33;99887.88;1778906;81;20992;-43
2022/10/13 08:31:42;;;;;;;24.30;7.72;;;;;;;10.76;66.56;99883.16;1778907;80;21429;-42
2022/10/13 08:34:10;;;;;;;17.00;6.97;;;;;;;10.91;67.12;99888.19;1779174;80;21019;-44
2022/10/13 08:36:36;;;;;;;;;;;;;;;11.01;66.41;99884.64;1781418;80;20967;-40
2022/10/13 08:39:02;;;;;;;21.33;6.25;;;;;;;11.07;64.49;99889.60;1778866;81;20449;-41
2022/10/13 08:41:35;;;;;;;18.32;6.72;;;;;;;11.19;66.41;99884.23;1779223;80;20999;-41
2022/10/13 08:44:19;;;;;;;21.75;6.55;;;;;;;11.25;65.64;99882.61;1782151;80;21023;-50
2022/10/13 08:46:59;;;;;;;15.48;6.67;;;;;;;11.41;65.97;99880.08;1787020;80;20959;-47
2022/10/13 08:49:29;;;;;;;18.70;6.85;;;;;;;11.48;64.87;99889.39;1787063;80;21001;-46
2022/10/13 08:51:55;;;;;;;25.25;7.72;;;;;;;11.63;64.85;99885.60;1787104;80;20990;-43
2022/10/13 08:54:24;;;;;;;16.50;6.65;;;;;;;11.79;64.71;99887.84;1787027;80;21010;-45
2022/10/13 08:56:50;;;;;;;16.10;6.42;;;;;;;12.11;64.96;99878.77;1787001;80;21461;-50
2022/10/13 08:59:17;;;;;;;13.83;6.33;;;;;;;12.50;64.16;99880.23;1787268;80;21035;-47
2022/10/13 09:01:50;;;;;;;15.07;6.83;;;;;;;12.80;63.55;99870.25;1786848;80;21065;-45
2022/10/13 09:04:32;;;;;;;24.27;7.37;;;;;;;13.11;61.45;99875.14;1785903;80;20939;-48
2022/10/13 09:07:18;;;;;;;17.87;7.40;;;;;;;13.31;63.52;99874.05;1783098;80;21463;-46
2022/10/13 09:09:44;;;;;;;15.83;6.97;;;;;;;13.35;62.44;99871.16;1764429;80;21437;-42
2022/10/13 09:12:14;;;;;;;24.12;6.95;;;;;;;13.20;58.75;99875.94;1769554;80;20993;-42
2022/10/13 09:14:40;;;;;;;16.80;6.90;;;;;;;13.15;60.88;99868.30;1773293;80;20971;-46
2022/10/13 09:17:25;;;;;;;17.95;6.80;;;;;;;13.01;60.18;99859.83;1754432;80;21004;-45
2022/10/13 09:20:20;;;;;;;14.83;6.55;;;;;;;12.92;60.41;99862.14;1774744;80;20928;-47
2022/10/13 09:23:05;;;;;;;16.77;6.45;;;;;;;12.84;60.69;99857.27;1775022;80;21046;-45
2022/10/13 09:25:41;;;;;;;19.05;6.47;;;;;;;12.79;60.55;99855.38;1761353;80;20935;-48
2022/10/13 09:28:24;;;;;;;13.90;6.05;;;;;;;12.71;60.09;99844.38;1786523;80;21523;-48
2022/10/13 09:31:01;;;;;;;17.20;5.97;;;;;;;12.63;60.18;99845.65;1736658;81;21003;-47
2022/10/13 09:33:26;;;;;;;15.53;5.95;;;;;;;12.56;60.22;99841.64;1780515;80;21583;-46
2022/10/13 09:36:05;;;;;;;19.02;5.70;;;;;;;12.54;60.50;99842.20;1760431;80;20924;-44
2022/10/13 09:38:32;;;;;;;19.67;6.03;;;;;;;12.48;59.25;99843.86;1786996;80;20952;-48
2022/10/13 09:41:19;;;;;;;16.82;6.10;;;;;;;12.51;60.52;99845.47;1756578;80;21006;-45
2022/10/13 09:43:53;;;;;;;17.00;6.00;;;;;;;12.45;60.49;99849.30;1761108;81;21027;-44
2022/10/13 09:46:32;;;;;;;19.77;5.35;;;;;;;12.44;60.97;99844.94;1783259;80;20940;-48
2022/10/13 09:49:09;;;;;;;14.87;5.75;;;;;;;12.45;61.13;99844.02;1786928;80;20960;-43
2022/10/13 09:51:39;;;;;;;11.05;5.03;;;;;;;12.42;60.98;99841.54;1751534;82;20936;-48
2022/10/13 09:54:25;;;;;;;16.62;5.15;;;;;;;12.45;60.92;99837.42;1763404;80;20947;-46
2022/10/13 09:56:58;;;;;;;17.65;3.87;;;;;;;12.49;60.92;99832.36;1784773;80;20979;-47
2022/10/13 09:59:32;;;;;;;15.58;5.90;;;;;;;12.52;60.64;99823.45;1754388;80;20952;-44
2022/10/13 10:02:21;;;;;;;13.10;4.37;;;;;;;12.53;60.63;99822.02;1772649;80;21032;-40
2022/10/13 10:04:50;;;;;;;14.63;4.20;;;;;;;12.54;60.41;99811.02;1775022;80;21380;-43
2022/10/13 10:07:20;;;;;;;13.85;4.22;;;;;;;12.56;60.72;99801.23;1754384;80;20968;-48
2022/10/13 10:09:54;;;;;;;13.38;4.67;;;;;;;12.52;60.49;99813.73;1775932;80;21424;-46
2022/10/13 10:12:25;;;;;;;12.78;4.58;;;;;;;12.52;60.20;99809.78;1767941;80;20956;-45
2022/10/13 10:14:52;;;;;;;8.93;4.00;;;;;;;12.54;60.31;99811.86;1758220;80;21006;-47
2022/10/13 10:17:38;;;;;;;11.50;3.70;;;;;;;12.53;60.00;99802.23;1780153;80;20991;-48
2022/10/13 10:20:37;;;;;;;18.32;4.22;;;;;;;12.52;60.04;99794.42;1762969;80;20952;-43
2022/10/13 10:23:09;;;;;;;13.65;4.95;;;;;;;12.57;60.85;99795.00;1787037;80;20967;-45
2022/10/13 10:25:52;;;;;;;13.45;4.25;;;;;;;12.61;60.52;99782.88;1758234;81;20996;-43
2022/10/13 10:28:52;;;;;;;11.65;4.25;;;;;;;12.67;60.32;99786.48;1768614;80;20964;-44
2022/10/13 10:31:51;;;;;;;16.50;3.50;;;;;;;12.73;59.29;99785.77;1778855;80;20953;-43
2022/10/13 10:34:50;;;;;;;15.48;3.37;;;;;;;12.78;59.44;99792.48;1766552;80;21563;-41
2022/10/13 10:37:47;;;;;;;9.15;3.47;;;;;;;12.84;59.47;99790.83;1753407;80;20954;-43
2022/10/13 10:40:31;;;;;;;9.15;3.60;;;;;;;12.86;58.92;99790.27;1785826;80;20948;-44
2022/10/13 10:43:20;;;;;;;8.18;4.05;;;;;;;12.88;57.64;99784.91;1756044;80;20991;-45
2022/10/13 10:45:47;;;;;;;10.98;4.55;;;;;;;12.93;58.41;99787.27;1764213;80;21445;-46
2022/10/13 10:48:30;;;;;;;11.43;4.60;;;;;;;12.89;56.77;99776.04;1786623;80;21468;-41
2022/10/13 10:50:56;;;;;;;11.53;3.72;;;;;;;12.96;58.61;99772.59;1756358;80;20936;-46
2022/10/13 10:53:48;;;;;;;7.12;3.62;;;;;;;12.99;58.04;99765.34;1779742;80;21022;-44
2022/10/13 10:56:34;;;;;;;35.52;4.42;;;;;;;13.02;58.30;99766.50;1758434;80;21030;-45
2022/10/13 10:59:12;;;;;;;13.53;4.20;;;;;;;13.05;57.30;99766.77;1755259;80;21003;-41
2022/10/13 11:01:41;;;;;;;;;;;;;;;13.11;57.83;99760.28;1755764;82;21417;-42
2022/10/13 11:04:24;;;;;;;14.63;3.80;;;;;;;13.11;56.52;99761.12;1763101;80;20461;-44
2022/10/13 11:06:50;;;;;;;9.38;4.20;;;;;;;13.16;57.42;99759.55;1756855;80;20932;-42
2022/10/13 11:09:37;;;;;;;16.85;4.87;;;;;;;13.20;57.90;99757.94;1779840;80;20995;-42
2022/10/13 11:12:21;;;;;;;13.45;4.50;;;;;;;13.23;57.70;99755.13;1762872;80;21472;-45
2022/10/13 11:15:09;;;;;;;12.85;4.67;;;;;;;13.27;56.89;99750.52;1759406;80;20942;-45
2022/10/13 11:17:38;;;;;;;18.95;4.67;;;;;;;13.33;57.74;99744.05;1778026;81;21004;-46
2022/10/13 11:20:25;;;;;;;13.35;4.55;;;;;;;13.36;58.08;99743.88;1771585;80;21003;-44
2022/10/13 11:23:05;;;;;;;7.97;3.70;;;;;;;13.40;57.86;99750.67;1787245;80;20999;-45
2022/10/13 11:25:42;;;;;;;9.80;4.42;;;;;;;13.41;56.45;99746.62;1753343;82;21867;-50
2022/10/13 11:28:26;;;;;;;10.85;4.42;;;;;;;13.46;57.53;99735.77;1764794;80;20958;-42
2022/10/13 11:30:54;;;;;;;12.53;4.42;;;;;;;13.51;57.44;99736.82;1787178;80;20955;-47
2022/10/13 11:33:46;;;;;;;11.43;4.60;;;;;;;13.54;57.34;99734.84;1783118;80;20962;-45
2022/10/13 11:36:49;;;;;;;16.65;5.45;;;;;;;13.56;57.47;99729.47;1764124;80;20964;-45
2022/10/13 11:39:29;;;;;;;10.05;4.47;;;;;;;13.61;57.75;99722.12;1754555;80;20967;-46
2022/10/13 11:42:12;;;;;;;11.25;4.72;;;;;;;13.65;57.22;99723.62;1787015;80;21472;-44
2022/10/13 11:44:57;;;;;;;14.33;5.15;;;;;;;13.74;57.66;99727.50;1768154;80;20955;-41
2022/10/13 11:48:02;;;;;;;9.35;4.30;;;;;;;13.76;56.64;99726.45;1787258;80;21440;-45
2022/10/13 11:51:00;;;;;;;10.38;4.78;;;;;;;13.79;56.82;99728.91;1778982;80;20978;-41